sensor_id;sensor_type;location;lat;lon;timestamp;temperature;humidity
3360;DHT22;1693;49.602;11.046;2024-03-22T08:10:52;8.10;99.90
3360;DHT22;1693;49.602;11.046;2024-03-22T08:13:19;8.20;99.90
3360;DHT22;1693;49.602;11.046;2024-03-22T08:15:47;8.30;99.90
3360;DHT22;1693;49.602;11.046;2024-03-22T08:18:14;8.30;99.90
3360;DHT22;1693;49.602;11.046;2024-03-22T08:20:42;8.20;99.90
3360;DHT22;1693;49.602;11.046;2024-03-22T08:23:10;8.20;99.90
3360;DHT22;1693;49.602;11.046;2024-03-22T08:25:38;8.40;99.90
3360;DHT22;1693;49.602;11.046;2024-03-22T08:28:06;8.60;99.90
3360;DHT22;1693;49.602;11.046;2024-03-22T08:30:37;9.00;99.90
3360;DHT22;1693;49.602;11.046;2024-03-22T08:33:03;9.30;99.90
3360;DHT22;1693;49.602;11.046;2024-03-22T08:35:31;9.40;99.90
3360;DHT22;1693;49.602;11.046;2024-03-22T08:37:58;9.20;99.90
3360;DHT22;1693;49.602;11.046;2024-03-22T08:40:27;9.50;99.90
3360;DHT22;1693;49.602;11.046;2024-03-22T08:42:53;9.90;99.90
3360;DHT22;1693;49.602;11.046;2024-03-22T08:45:21;10.10;99.90
3360;DHT22;1693;49.602;11.046;2024-03-22T08:47:47;10.40;99.90
3360;DHT22;1693;49.602;11.046;2024-03-22T08:50:17;10.40;99.90
3360;DHT22;1693;49.602;11.046;2024-03-22T08:52:46;10.10;99.90
3360;DHT22;1693;49.602;11.046;2024-03-22T08:55:18;10.20;99.90
3360;DHT22;1693;49.602;11.046;2024-03-22T08:57:45;10.50;99.90
3360;DHT22;1693;49.602;11.046;2024-03-22T09:00:14;10.70;99.90
3360;DHT22;1693;49.602;11.046;2024-03-22T09:02:45;11.00;99.90
3360;DHT22;1693;49.602;11.046;2024-03-22T09:05:14;11.30;99.90
3360;DHT22;1693;49.602;11.046;2024-03-22T09:07:43;11.20;99.90
3360;DHT22;1693;49.602;11.046;2024-03-22T09:10:14;11.30;99.90
3360;DHT22;1693;49.602;11.046;2024-03-22T09:12:41;11.60;99.90
3360;DHT22;1693;49.602;11.046;2024-03-22T09:15:10;11.80;99.90
3360;DHT22;1693;49.602;11.046;2024-03-22T09:17:37;11.90;99.90
3360;DHT22;1693;49.602;11.046;2024-03-22T09:20:06;11.80;99.90
3360;DHT22;1693;49.602;11.046;2024-03-22T09:22:33;11.70;99.90
3360;DHT22;1693;49.602;11.046;2024-03-22T09:25:05;11.90;99.90
3360;DHT22;1693;49.602;11.046;2024-03-22T09:27:32;12.20;99.90
3360;DHT22;1693;49.602;11.046;2024-03-22T09:29:59;12.50;99.90
3360;DHT22;1693;49.602;11.046;2024-03-22T09:32:28;12.70;99.90
3360;DHT22;1693;49.602;11.046;2024-03-22T09:34:56;12.70;99.90
3360;DHT22;1693;49.602;11.046;2024-03-22T09:37:24;12.70;99.90
3360;DHT22;1693;49.602;11.046;2024-03-22T09:39:52;12.50;99.90
3360;DHT22;1693;49.602;11.046;2024-03-22T09:42:23;12.90;99.90
3360;DHT22;1693;49.602;11.046;2024-03-22T09:44:54;13.10;99.90
3360;DHT22;1693;49.602;11.046;2024-03-22T09:47:23;13.40;99.90
3360;DHT22;1693;49.602;11.046;2024-03-22T09:49:56;13.90;99.90
3360;DHT22;1693;49.602;11.046;2024-03-22T09:52:26;14.10;99.90
3360;DHT22;1693;49.602;11.046;2024-03-22T09:54:56;14.40;99.90
3360;DHT22;1693;49.602;11.046;2024-03-22T09:57:23;14.40;99.90
3360;DHT22;1693;49.602;11.046;2024-03-22T09:59:52;14.30;99.90
3360;DHT22;1693;49.602;11.046;2024-03-22T10:02:22;14.30;99.90
3360;DHT22;1693;49.602;11.046;2024-03-22T10:04:53;14.60;99.90
3360;DHT22;1693;49.602;11.046;2024-03-22T10:39:43;18.60;99.90
